createdAt,value
2018-08-04T00:01:50.491Z,98791.10
2018-08-04T00:04:19.640Z,98790.84
2018-08-04T00:06:48.800Z,98784.33
2018-08-04T00:09:18.009Z,98782.16
2018-08-04T00:11:47.215Z,98785.98
2018-08-04T00:14:16.437Z,98780.62
2018-08-04T00:16:45.575Z,98789.37
2018-08-04T00:19:14.704Z,98786.17
2018-08-04T00:21:43.841Z,98783.01
2018-08-04T00:24:13.041Z,98780.36
2018-08-04T00:26:42.169Z,98789.69
2018-08-04T00:29:11.879Z,98783.59
2018-08-04T00:31:41.054Z,98783.68
2018-08-04T00:34:10.216Z,98782.45
2018-08-04T00:36:39.365Z,98778.77
2018-08-04T00:39:08.775Z,98782.58
2018-08-04T00:41:37.994Z,98784.48
2018-08-04T00:44:07.180Z,98788.31
2018-08-04T00:46:36.360Z,98787.02
2018-08-04T00:49:05.660Z,98783.56
2018-08-04T00:51:34.845Z,98790.95
2018-08-04T00:54:04.018Z,98781.59
2018-08-04T00:56:33.170Z,98783.38
2018-08-04T00:59:02.304Z,98776.60
2018-08-04T01:01:31.482Z,98785.25
2018-08-04T01:04:00.641Z,98781.73
2018-08-04T01:06:29.831Z,98779.66
2018-08-04T01:08:58.976Z,98778.16
2018-08-04T01:11:28.172Z,98768.94
2018-08-04T01:13:57.320Z,98767.91
2018-08-04T01:16:26.457Z,98767.59
2018-08-04T01:18:55.621Z,98765.98
2018-08-04T01:21:24.794Z,98768.40
2018-08-04T01:23:53.936Z,98767.84
2018-08-04T01:26:23.427Z,98762.17
2018-08-04T01:28:52.562Z,98758.17
2018-08-04T01:31:21.707Z,98769.55
2018-08-04T01:33:50.884Z,98761.80
2018-08-04T01:36:20.041Z,98750.34
2018-08-04T01:38:49.181Z,98754.41
2018-08-04T01:41:18.375Z,98762.81
2018-08-04T01:43:47.489Z,98753.24
2018-08-04T01:46:17.205Z,98755.58
2018-08-04T01:48:46.412Z,98760.23
2018-08-04T01:51:17.155Z,98758.99
2018-08-04T01:53:46.339Z,98758.58
2018-08-04T01:56:15.812Z,98759.19
2018-08-04T01:58:44.917Z,98754.84
2018-08-04T02:01:14.060Z,98742.66
2018-08-04T02:03:43.225Z,98751.59
2018-08-04T02:06:12.390Z,98744.56
2018-08-04T02:08:41.514Z,98750.23
2018-08-04T02:11:10.687Z,98744.82
2018-08-04T02:13:39.812Z,98743.95
2018-08-04T02:16:09.053Z,98747.53
2018-08-04T02:18:38.204Z,98744.84
2018-08-04T02:21:07.591Z,98745.16
2018-08-04T02:23:36.746Z,98754.37
2018-08-04T02:26:06.250Z,98751.48
2018-08-04T02:28:35.384Z,98747.55
2018-08-04T02:31:04.558Z,98745.77
2018-08-04T02:33:33.718Z,98745.11
2018-08-04T02:36:02.896Z,98742.17
2018-08-04T02:38:32.046Z,98741.67
2018-08-04T02:41:01.216Z,98741.94
2018-08-04T02:43:31.292Z,98747.58
2018-08-04T02:46:00.470Z,98743.03
2018-08-04T02:48:29.740Z,98745.08
2018-08-04T02:50:58.896Z,98746.16
2018-08-04T02:53:28.044Z,98747.88
2018-08-04T02:55:57.185Z,98741.35
2018-08-04T02:58:26.395Z,98745.41
2018-08-04T03:00:55.601Z,98745.17
2018-08-04T03:03:24.822Z,98752.71
2018-08-04T03:05:53.967Z,98751.13
2018-08-04T03:08:23.070Z,98747.67
2018-08-04T03:10:52.298Z,98752.27
2018-08-04T03:13:21.441Z,98750.16
2018-08-04T03:15:50.584Z,98751.06
2018-08-04T03:18:19.755Z,98755.16
2018-08-04T03:20:49.058Z,98765.55
2018-08-04T03:23:18.299Z,98764.28
2018-08-04T03:25:47.490Z,98767.31
2018-08-04T03:28:16.605Z,98769.02
2018-08-04T03:30:45.748Z,98768.21
2018-08-04T03:33:14.976Z,98769.30
2018-08-04T03:35:44.177Z,98766.91
2018-08-04T03:38:13.345Z,98773.40
2018-08-04T03:40:42.512Z,98768.67
2018-08-04T03:43:11.632Z,98771.91
2018-08-04T03:45:40.778Z,98776.73
2018-08-04T03:48:09.929Z,98779.97
2018-08-04T03:50:39.210Z,98778.84
2018-08-04T03:53:09.493Z,98776.41
2018-08-04T03:55:38.655Z,98778.02
2018-08-04T03:58:07.830Z,98784.73
2018-08-04T04:00:37.021Z,98774.16
2018-08-04T04:03:06.321Z,98775.78
2018-08-04T04:05:35.483Z,98776.05
2018-08-04T04:08:04.655Z,98775.19
2018-08-04T04:10:33.850Z,98781.09
2018-08-04T04:13:03.016Z,98782.35
2018-08-04T04:15:32.172Z,98783.11
2018-08-04T04:18:01.335Z,98778.83
2018-08-04T04:20:30.477Z,98783.38
2018-08-04T04:22:59.608Z,98787.93
2018-08-04T04:25:28.818Z,98785.13
2018-08-04T04:27:57.945Z,98792.66
2018-08-04T04:30:27.684Z,98788.05
2018-08-04T04:32:56.860Z,98789.08
2018-08-04T04:35:26.002Z,98791.38
2018-08-04T04:37:55.357Z,98791.05
2018-08-04T04:40:24.535Z,98764.36
2018-08-04T04:42:53.655Z,98798.25
2018-08-04T04:45:22.806Z,98798.96
2018-08-04T04:47:51.970Z,98794.30
2018-08-04T04:50:21.134Z,98793.65
2018-08-04T04:52:50.352Z,98794.35
2018-08-04T04:55:19.572Z,98796.57
2018-08-04T04:57:48.691Z,98795.11
2018-08-04T05:00:17.838Z,98801.44
2018-08-04T05:02:47.001Z,98801.59
2018-08-04T05:05:16.136Z,98794.45
2018-08-04T05:07:45.251Z,98794.05
2018-08-04T05:10:14.436Z,98794.44
2018-08-04T05:12:43.540Z,98785.30
2018-08-04T05:15:12.741Z,98791.84
2018-08-04T05:17:41.933Z,98794.73
2018-08-04T05:20:11.081Z,98787.78
2018-08-04T05:22:40.232Z,98792.79
2018-08-04T05:25:09.548Z,98791.80
2018-08-04T05:27:38.665Z,98792.48
2018-08-04T05:30:08.327Z,98790.59
2018-08-04T05:32:37.539Z,98794.02
2018-08-04T05:35:06.816Z,98796.48
2018-08-04T05:37:35.926Z,98790.94
2018-08-04T05:40:05.327Z,98797.78
2018-08-04T05:42:34.585Z,98795.20
2018-08-04T05:45:03.799Z,98799.61
2018-08-04T05:47:32.978Z,98799.78
2018-08-04T05:50:02.149Z,98801.69
2018-08-04T05:52:31.296Z,98800.60
2018-08-04T05:55:00.465Z,98800.91
2018-08-04T05:57:29.607Z,98806.05
2018-08-04T05:59:58.758Z,98808.43
2018-08-04T06:02:27.900Z,98804.64
2018-08-04T06:04:57.039Z,98806.67
2018-08-04T06:07:26.199Z,98754.24
2018-08-04T06:09:55.563Z,98796.40
2018-08-04T06:12:24.732Z,98800.16
2018-08-04T06:14:53.887Z,98794.25
2018-08-04T06:17:23.033Z,98798.55
2018-08-04T06:19:52.136Z,98789.99
2018-08-04T06:22:21.253Z,98797.63
2018-08-04T06:24:51.406Z,98797.37
2018-08-04T06:27:20.522Z,98794.17
2018-08-04T06:29:49.648Z,98793.84
2018-08-04T06:32:18.800Z,98790.60
2018-08-04T06:34:48.021Z,98788.53
2018-08-04T06:37:18.567Z,98795.52
2018-08-04T06:39:47.720Z,98784.44
2018-08-04T06:42:16.836Z,98790.03
2018-08-04T06:44:45.969Z,98781.27
2018-08-04T06:47:15.121Z,98775.88
2018-08-04T06:49:44.248Z,98781.67
2018-08-04T06:52:13.544Z,98782.89
2018-08-04T06:54:42.696Z,98776.79
2018-08-04T06:57:11.866Z,98779.67
2018-08-04T06:59:40.991Z,98774.05
2018-08-04T07:02:10.164Z,98774.33
2018-08-04T07:04:39.291Z,98773.72
2018-08-04T07:07:08.976Z,98773.62
2018-08-04T07:09:38.180Z,98772.84
2018-08-04T07:12:07.372Z,98768.11
2018-08-04T07:14:36.534Z,98770.19
2018-08-04T07:17:05.754Z,98768.49
2018-08-04T07:19:35.041Z,98766.83
2018-08-04T07:22:04.192Z,98765.02
2018-08-04T07:24:33.318Z,98766.16
2018-08-04T07:27:02.447Z,98767.06
2018-08-04T07:29:31.592Z,98759.58
2018-08-04T07:32:01.090Z,98769.58
2018-08-04T07:34:34.777Z,98764.11
2018-08-04T07:37:03.991Z,98767.09
2018-08-04T07:39:33.096Z,98758.70
2018-08-04T07:42:02.265Z,98766.19
2018-08-04T07:44:31.434Z,98760.70
2018-08-04T07:47:00.582Z,98758.66
2018-08-04T07:49:29.702Z,98759.78
2018-08-04T07:51:58.889Z,98755.67
2018-08-04T07:54:28.004Z,98748.05
2018-08-04T07:56:57.297Z,98750.05
2018-08-04T07:59:26.568Z,98748.12
2018-08-04T08:01:55.700Z,98752.23
2018-08-04T08:04:24.833Z,98752.71
2018-08-04T08:06:55.456Z,98745.00
2018-08-04T08:09:24.596Z,98745.99
2018-08-04T08:11:53.724Z,98745.19
2018-08-04T08:14:22.929Z,98743.23
2018-08-04T08:16:52.079Z,98744.27
2018-08-04T08:19:21.228Z,98744.51
2018-08-04T08:21:50.466Z,98736.58
2018-08-04T08:24:19.616Z,98738.88
2018-08-04T08:26:48.809Z,98742.03
2018-08-04T08:29:18.060Z,98743.73
2018-08-04T08:31:47.210Z,98737.08
2018-08-04T08:34:16.360Z,98735.27
2018-08-04T08:36:45.569Z,98731.05
2018-08-04T08:39:14.717Z,98734.98
2018-08-04T08:41:43.864Z,98722.93
2018-08-04T08:44:13.024Z,98728.56
2018-08-04T08:46:42.206Z,98718.88
2018-08-04T08:49:11.761Z,98724.81
2018-08-04T08:51:40.915Z,98724.00
2018-08-04T08:54:10.269Z,98714.78
2018-08-04T08:56:39.355Z,98721.12
2018-08-04T08:59:08.505Z,98716.58
2018-08-04T09:01:37.692Z,98713.72
2018-08-04T09:04:07.209Z,98717.27
2018-08-04T09:06:36.406Z,98719.39
2018-08-04T09:09:08.386Z,98712.23
2018-08-04T09:11:38.539Z,98717.70
2018-08-04T09:14:07.753Z,98715.53
2018-08-04T09:16:37.764Z,98713.10
2018-08-04T09:19:07.106Z,98709.59
2018-08-04T09:21:36.416Z,98711.00
2018-08-04T09:24:05.639Z,98703.79
2018-08-04T09:26:34.816Z,98705.78
2018-08-04T09:29:03.948Z,98704.98
2018-08-04T09:31:33.110Z,98702.70
2018-08-04T09:34:02.288Z,98700.88
2018-08-04T09:36:31.457Z,98700.04
2018-08-04T09:39:00.628Z,98704.05
2018-08-04T09:41:29.825Z,98701.27
2018-08-04T09:43:58.959Z,98696.96
2018-08-04T09:46:28.144Z,98697.96
2018-08-04T09:48:57.317Z,98706.60
2018-08-04T09:51:26.429Z,98705.62
2018-08-04T09:53:56.656Z,98698.37
2018-08-04T09:56:26.342Z,98703.26
2018-08-04T09:58:55.502Z,98700.88
2018-08-04T10:01:29.847Z,98699.09
2018-08-04T10:03:59.340Z,98694.88
2018-08-04T10:06:28.614Z,98696.66
2018-08-04T10:08:57.846Z,98693.00
2018-08-04T10:11:27.029Z,98688.47
2018-08-04T10:13:56.157Z,98686.47
2018-08-04T10:16:25.366Z,98688.95
2018-08-04T10:18:54.534Z,98678.50
2018-08-04T10:21:23.701Z,98686.72
2018-08-04T10:23:52.851Z,98687.78
2018-08-04T10:26:21.993Z,98682.84
2018-08-04T10:28:51.146Z,98689.45
2018-08-04T10:31:20.412Z,98684.14
2018-08-04T10:33:49.572Z,98684.14
2018-08-04T10:36:18.733Z,98689.84
2018-08-04T10:38:47.996Z,98687.59
2018-08-04T10:41:17.153Z,98688.59
2018-08-04T10:43:46.295Z,98687.00
2018-08-04T10:46:15.546Z,98687.21
2018-08-04T10:48:44.695Z,98684.27
2018-08-04T10:51:13.856Z,98683.23
2018-08-04T10:53:43.016Z,98684.41
2018-08-04T10:56:12.176Z,98682.81
2018-08-04T10:58:41.302Z,98679.66
2018-08-04T11:01:10.476Z,98668.38
2018-08-04T11:03:39.633Z,98667.59
2018-08-04T11:06:08.806Z,98665.47
2018-08-04T11:08:38.005Z,98666.58
2018-08-04T11:11:07.589Z,98662.21
2018-08-04T11:13:36.747Z,98659.02
2018-08-04T11:16:06.089Z,98648.25
2018-08-04T11:18:35.236Z,98641.12
2018-08-04T11:21:04.452Z,98644.28
2018-08-04T11:23:33.600Z,98649.98
2018-08-04T11:26:02.741Z,98643.94
2018-08-04T11:28:31.938Z,98645.88
2018-08-04T11:31:01.168Z,98637.05
2018-08-04T11:33:30.310Z,98637.70
2018-08-04T11:35:59.458Z,98634.00
2018-08-04T11:38:28.621Z,98636.31
2018-08-04T11:40:57.761Z,98628.59
2018-08-04T11:43:26.889Z,98627.34
2018-08-04T11:45:56.042Z,98620.14
2018-08-04T11:48:25.206Z,98617.74
2018-08-04T11:50:54.485Z,98619.52
2018-08-04T11:53:23.634Z,98611.95
2018-08-04T11:55:54.884Z,98617.31
2018-08-04T11:58:25.029Z,98615.51
2018-08-04T12:00:55.182Z,98602.11
2018-08-04T12:03:29.299Z,98602.73
2018-08-04T12:05:59.573Z,98596.03
2018-08-04T12:08:28.729Z,98595.61
2018-08-04T12:10:57.896Z,98601.28
2018-08-04T12:13:27.183Z,98594.69
2018-08-04T12:15:56.317Z,98593.81
2018-08-04T12:18:25.489Z,98600.51
2018-08-04T12:20:54.658Z,98591.50
2018-08-04T12:23:23.823Z,98583.30
2018-08-04T12:25:53.050Z,98580.27
2018-08-04T12:28:22.269Z,98575.60
2018-08-04T12:30:51.535Z,98574.34
2018-08-04T12:33:20.688Z,98569.55
2018-08-04T12:35:49.828Z,98570.15
2018-08-04T12:38:19.063Z,98567.84
2018-08-04T12:40:48.295Z,98568.87
2018-08-04T12:43:17.467Z,98573.91
2018-08-04T12:45:46.850Z,98562.56
2018-08-04T12:48:16.028Z,98559.52
2018-08-04T12:50:45.222Z,98559.04
2018-08-04T12:53:14.396Z,98560.28
2018-08-04T12:55:43.595Z,98556.62
2018-08-04T12:58:13.000Z,98557.88
2018-08-04T13:00:42.132Z,98558.49
2018-08-04T13:03:11.703Z,98556.94
2018-08-04T13:05:40.827Z,98555.23
2018-08-04T13:08:09.943Z,98557.09
2018-08-04T13:10:39.124Z,98552.02
2018-08-04T13:13:08.544Z,98545.78
2018-08-04T13:15:37.673Z,98542.17
2018-08-04T13:18:06.839Z,98548.40
2018-08-04T13:20:35.988Z,98544.63
2018-08-04T13:23:05.129Z,98533.57
2018-08-04T13:25:34.354Z,98533.55
2018-08-04T13:28:05.258Z,98527.72
2018-08-04T13:30:34.601Z,98523.55
2018-08-04T13:33:03.792Z,98528.16
2018-08-04T13:35:33.016Z,98514.41
2018-08-04T13:38:02.243Z,98519.41
2018-08-04T13:40:31.428Z,98516.41
2018-08-04T13:43:00.649Z,98512.45
2018-08-04T13:45:29.751Z,98509.84
2018-08-04T13:47:58.876Z,98501.91
2018-08-04T13:50:28.014Z,98499.86
2018-08-04T13:52:57.131Z,98499.50
2018-08-04T13:55:26.284Z,98491.28
2018-08-04T13:57:55.418Z,98492.56
2018-08-04T14:00:24.574Z,98454.34
2018-08-04T14:02:53.867Z,98493.65
2018-08-04T14:05:22.999Z,98496.56
2018-08-04T14:07:52.161Z,98502.70
2018-08-04T14:10:21.346Z,98496.34
2018-08-04T14:12:50.543Z,98486.30
2018-08-04T14:15:19.708Z,98484.23
2018-08-04T14:17:48.931Z,98482.25
2018-08-04T14:20:18.125Z,98487.91
2018-08-04T14:22:47.499Z,98488.36
2018-08-04T14:25:16.686Z,98489.52
2018-08-04T14:27:45.865Z,98484.06
2018-08-04T14:30:15.117Z,98488.59
2018-08-04T14:32:44.311Z,98484.77
2018-08-04T14:35:13.494Z,98477.63
2018-08-04T14:37:42.702Z,98477.04
2018-08-04T14:40:11.873Z,98484.84
2018-08-04T14:42:41.069Z,98479.48
2018-08-04T14:45:11.186Z,98486.75
2018-08-04T14:47:40.389Z,98478.32
2018-08-04T14:50:09.530Z,98481.72
2018-08-04T14:52:38.698Z,98478.09
2018-08-04T14:55:08.193Z,98480.27
2018-08-04T14:57:37.453Z,98474.07
2018-08-04T15:00:06.851Z,98475.03
2018-08-04T15:02:36.153Z,98476.58
2018-08-04T15:05:05.460Z,98469.91
2018-08-04T15:07:34.631Z,98475.09
2018-08-04T15:10:03.837Z,98474.92
2018-08-04T15:12:33.032Z,98466.78
2018-08-04T15:15:02.198Z,98466.47
2018-08-04T15:17:31.392Z,98465.51
2018-08-04T15:20:00.530Z,98470.11
2018-08-04T15:22:29.732Z,98471.72
2018-08-04T15:24:58.961Z,98474.73
2018-08-04T15:27:28.087Z,98471.77
2018-08-04T15:29:57.203Z,98470.81
2018-08-04T15:32:26.376Z,98461.94
2018-08-04T15:34:56.169Z,98465.99
2018-08-04T15:37:25.329Z,98458.70
2018-08-04T15:39:54.593Z,98453.15
2018-08-04T15:42:23.732Z,98452.97
2018-08-04T15:44:52.981Z,98450.25
2018-08-04T15:47:22.137Z,98452.13
2018-08-04T15:49:51.249Z,98453.84
2018-08-04T15:52:20.395Z,98452.92
2018-08-04T15:54:49.662Z,98451.58
2018-08-04T15:57:18.822Z,98449.14
2018-08-04T15:59:47.944Z,98440.09
2018-08-04T16:02:17.110Z,98437.05
2018-08-04T16:04:46.245Z,98435.09
2018-08-04T16:07:15.380Z,98435.88
2018-08-04T16:09:44.544Z,98433.91
2018-08-04T16:12:13.701Z,98435.67
2018-08-04T16:14:42.845Z,98439.80
2018-08-04T16:17:12.102Z,98438.42
2018-08-04T16:19:41.839Z,98441.05
2018-08-04T16:22:11.012Z,98441.52
2018-08-04T16:24:40.244Z,98449.80
2018-08-04T16:27:09.515Z,98451.80
2018-08-04T16:29:38.636Z,98454.55
2018-08-04T16:32:07.817Z,98461.63
2018-08-04T16:34:36.986Z,98460.27
2018-08-04T16:37:06.350Z,98453.41
2018-08-04T16:39:35.517Z,98456.80
2018-08-04T16:42:04.752Z,98458.39
2018-08-04T16:44:33.829Z,98462.16
2018-08-04T16:47:02.957Z,98458.03
2018-08-04T16:49:32.140Z,98463.38
2018-08-04T16:52:01.253Z,98467.31
2018-08-04T16:54:30.441Z,98474.61
2018-08-04T16:57:00.114Z,98466.72
2018-08-04T16:59:29.265Z,98469.29
2018-08-04T17:01:58.370Z,98464.74
2018-08-04T17:04:27.504Z,98463.75
2018-08-04T17:06:56.629Z,98465.52
2018-08-04T17:09:25.801Z,98466.85
2018-08-04T17:11:54.932Z,98472.18
2018-08-04T17:14:24.070Z,98477.66
2018-08-04T17:16:53.204Z,98478.16
2018-08-04T17:19:22.381Z,98476.53
2018-08-04T17:21:51.555Z,98479.33
2018-08-04T17:24:20.707Z,98482.77
2018-08-04T17:26:50.268Z,98484.45
2018-08-04T17:29:19.479Z,98494.97
2018-08-04T17:31:48.741Z,98492.59
2018-08-04T17:34:18.046Z,98503.89
2018-08-04T17:36:47.208Z,98512.19
2018-08-04T17:39:16.448Z,98506.50
2018-08-04T17:41:45.714Z,98507.57
2018-08-04T17:44:14.853Z,98510.80
2018-08-04T17:46:44.036Z,98515.55
2018-08-04T17:49:13.279Z,98519.27
2018-08-04T17:51:42.501Z,98522.56
2018-08-04T17:54:11.640Z,98522.20
2018-08-04T17:56:40.796Z,98526.27
2018-08-04T17:59:09.939Z,98528.92
2018-08-04T18:01:39.175Z,98526.49
2018-08-04T18:04:08.338Z,98518.09
2018-08-04T18:06:37.538Z,98523.52
2018-08-04T18:09:09.059Z,98534.56
2018-08-04T18:11:39.183Z,98525.28
2018-08-04T18:14:08.387Z,98533.77
2018-08-04T18:16:37.582Z,98535.73
2018-08-04T18:19:06.887Z,98544.59
2018-08-04T18:21:36.168Z,98545.02
2018-08-04T18:24:05.463Z,98546.09
2018-08-04T18:26:34.639Z,98550.02
2018-08-04T18:29:03.841Z,98552.47
2018-08-04T18:31:33.058Z,98549.64
2018-08-04T18:34:02.204Z,98548.34
2018-08-04T18:36:31.357Z,98548.19
2018-08-04T18:39:00.503Z,98545.36
2018-08-04T18:41:29.654Z,98541.36
2018-08-04T18:43:59.732Z,98545.89
2018-08-04T18:46:29.015Z,98558.59
2018-08-04T18:48:58.135Z,98546.59
2018-08-04T18:51:27.252Z,98549.14
2018-08-04T18:53:56.507Z,98549.18
2018-08-04T18:56:25.652Z,98546.42
2018-08-04T18:58:54.784Z,98553.16
2018-08-04T19:01:24.025Z,98555.70
2018-08-04T19:03:53.153Z,98557.13
2018-08-04T19:06:22.299Z,98554.63
2018-08-04T19:08:51.460Z,98555.70
2018-08-04T19:11:20.736Z,98565.27
2018-08-04T19:13:49.962Z,98556.76
2018-08-04T19:16:19.117Z,98555.29
2018-08-04T19:18:48.309Z,98556.78
2018-08-04T19:21:17.456Z,98556.24
2018-08-04T19:23:46.949Z,98554.33
2018-08-04T19:26:16.184Z,98558.82
2018-08-04T19:28:45.331Z,98557.47
2018-08-04T19:31:14.448Z,98548.37
2018-08-04T19:33:43.606Z,98556.02
2018-08-04T19:36:12.806Z,98549.23
2018-08-04T19:38:41.913Z,98553.12
2018-08-04T19:41:11.633Z,98531.30
2018-08-04T19:43:40.769Z,98550.63
2018-08-04T19:46:09.957Z,98560.32
2018-08-04T19:48:39.116Z,98556.27
2018-08-04T19:51:08.470Z,98549.09
2018-08-04T19:53:37.624Z,98551.38
2018-08-04T19:56:06.814Z,98553.42
2018-08-04T19:58:35.964Z,98563.90
2018-08-04T20:01:05.169Z,98567.67
2018-08-04T20:03:34.305Z,98571.77
2018-08-04T20:06:03.455Z,98562.56
2018-08-04T20:08:32.623Z,98563.13
2018-08-04T20:11:01.765Z,98567.34
2018-08-04T20:13:30.886Z,98568.66
2018-08-04T20:16:00.053Z,98571.62
2018-08-04T20:18:29.174Z,98570.14
2018-08-04T20:20:58.437Z,98571.04
2018-08-04T20:23:27.692Z,98574.43
2018-08-04T20:25:56.847Z,98576.37
2018-08-04T20:28:25.979Z,98576.23
2018-08-04T20:30:55.137Z,98584.29
2018-08-04T20:33:24.321Z,98578.69
2018-08-04T20:35:53.662Z,98583.06
2018-08-04T20:38:22.856Z,98580.08
2018-08-04T20:40:52.027Z,98580.98
2018-08-04T20:43:21.157Z,98582.21
2018-08-04T20:45:50.305Z,98578.69
2018-08-04T20:48:19.503Z,98586.66
2018-08-04T20:50:48.666Z,98588.14
2018-08-04T20:53:17.824Z,98588.09
2018-08-04T20:55:46.969Z,98595.31
2018-08-04T20:58:16.117Z,98595.51
2018-08-04T21:01:59.270Z,98588.90
2018-08-04T21:04:29.523Z,98581.39
2018-08-04T21:06:58.713Z,98577.09
2018-08-04T21:09:27.887Z,98580.12
2018-08-04T21:11:57.468Z,98566.86
2018-08-04T21:14:27.536Z,98590.14
2018-08-04T21:16:57.629Z,98596.17
2018-08-04T21:19:27.202Z,98584.59
2018-08-04T21:21:56.323Z,98582.06
2018-08-04T21:24:26.452Z,98579.34
2018-08-04T21:26:56.208Z,98574.86
2018-08-04T21:29:25.501Z,98574.55
2018-08-04T21:31:54.704Z,98575.20
2018-08-04T21:34:23.886Z,98571.53
2018-08-04T21:36:53.029Z,98580.52
2018-08-04T21:39:22.220Z,98577.25
2018-08-04T21:41:51.409Z,98575.42
2018-08-04T21:44:20.623Z,98572.89
2018-08-04T21:46:51.870Z,98578.35
2018-08-04T21:49:21.369Z,98584.99
2018-08-04T21:51:51.457Z,98588.05
2018-08-04T21:54:20.780Z,98587.64
2018-08-04T21:56:49.886Z,98590.36
2018-08-04T21:59:19.052Z,98594.04
2018-08-04T22:01:55.237Z,98593.14
2018-08-04T22:04:24.640Z,98590.21
2018-08-04T22:08:05.839Z,98593.57
2018-08-04T22:10:35.038Z,98590.61
2018-08-04T22:13:04.387Z,98590.86
2018-08-04T22:15:33.573Z,98594.34
2018-08-04T22:18:02.734Z,98585.98
2018-08-04T22:20:31.930Z,98584.92
2018-08-04T22:23:01.111Z,98578.72
2018-08-04T22:25:30.841Z,98584.45
2018-08-04T22:28:00.209Z,98580.47
2018-08-04T22:30:29.373Z,98588.63
2018-08-04T22:32:58.537Z,98583.52
2018-08-04T22:35:34.997Z,98587.11
2018-08-04T22:38:04.149Z,98582.00
2018-08-04T22:40:33.309Z,98582.56
2018-08-04T22:43:02.483Z,98573.95
2018-08-04T22:46:04.145Z,98577.77
2018-08-04T22:48:33.767Z,98573.88
2018-08-04T22:51:03.028Z,98573.71
2018-08-04T22:53:32.328Z,98574.52
2018-08-04T22:56:01.542Z,98574.52
2018-08-04T22:58:30.687Z,98575.31
2018-08-04T23:00:59.855Z,98573.08
2018-08-04T23:03:29.030Z,98568.55
2018-08-04T23:05:58.243Z,98577.67
2018-08-04T23:08:27.420Z,98574.45
2018-08-04T23:10:56.581Z,98574.45
2018-08-04T23:13:25.774Z,98575.81
2018-08-04T23:15:54.984Z,98570.47
2018-08-04T23:18:27.388Z,98568.06
2018-08-04T23:20:56.569Z,98566.23
2018-08-04T23:23:25.687Z,98562.22
2018-08-04T23:25:54.864Z,98561.58
2018-08-04T23:28:24.018Z,98559.03
2018-08-04T23:30:53.633Z,98563.99
2018-08-04T23:33:22.827Z,98569.33
2018-08-04T23:35:51.996Z,98569.65
2018-08-04T23:38:21.157Z,98573.72
2018-08-04T23:40:50.316Z,98566.94
2018-08-04T23:43:19.432Z,98567.19
2018-08-04T23:45:48.661Z,98564.70
2018-08-04T23:48:17.819Z,98564.47
2018-08-04T23:50:46.990Z,98570.03
2018-08-04T23:53:16.575Z,98563.88
2018-08-04T23:55:45.743Z,98566.12
2018-08-04T23:58:14.883Z,98556.70
